sensor_id;sensor_type;location;lat;lon;timestamp;P1;durP1;ratioP1;P2;durP2;ratioP2
15889;SDS011;8043;49.388;12.128;2023-05-10T00:02:23;4.60;;;2.33;;
15889;SDS011;8043;49.388;12.128;2023-05-10T00:07:25;4.77;;;2.57;;
15889;SDS011;8043;49.388;12.128;2023-05-10T00:12:28;4.60;;;2.50;;
15889;SDS011;8043;49.388;12.128;2023-05-10T00:17:30;4.43;;;2.37;;
15889;SDS011;8043;49.388;12.128;2023-05-10T00:22:32;6.60;;;3.00;;
15889;SDS011;8043;49.388;12.128;2023-05-10T00:27:35;4.40;;;2.20;;
15889;SDS011;8043;49.388;12.128;2023-05-10T00:32:37;3.47;;;2.50;;
15889;SDS011;8043;49.388;12.128;2023-05-10T00:37:39;3.43;;;2.47;;
15889;SDS011;8043;49.388;12.128;2023-05-10T00:42:42;3.83;;;2.40;;
15889;SDS011;8043;49.388;12.128;2023-05-10T00:47:45;4.20;;;2.60;;
15889;SDS011;8043;49.388;12.128;2023-05-10T00:52:47;4.27;;;2.50;;
15889;SDS011;8043;49.388;12.128;2023-05-10T00:57:49;6.40;;;2.40;;
15889;SDS011;8043;49.388;12.128;2023-05-10T01:02:52;4.07;;;2.40;;
15889;SDS011;8043;49.388;12.128;2023-05-10T01:07:55;5.03;;;2.70;;
15889;SDS011;8043;49.388;12.128;2023-05-10T01:12:58;4.50;;;2.60;;
15889;SDS011;8043;49.388;12.128;2023-05-10T01:18:01;3.30;;;2.20;;
15889;SDS011;8043;49.388;12.128;2023-05-10T01:23:21;3.73;;;2.47;;
15889;SDS011;8043;49.388;12.128;2023-05-10T01:33:39;3.27;;;2.33;;
15889;SDS011;8043;49.388;12.128;2023-05-10T01:38:52;3.10;;;2.20;;
15889;SDS011;8043;49.388;12.128;2023-05-10T01:49:29;4.33;;;2.40;;
15889;SDS011;8043;49.388;12.128;2023-05-10T01:54:27;4.43;;;2.40;;
15889;SDS011;8043;49.388;12.128;2023-05-10T01:59:32;2.97;;;2.27;;
15889;SDS011;8043;49.388;12.128;2023-05-10T02:04:40;2.90;;;2.17;;
15889;SDS011;8043;49.388;12.128;2023-05-10T02:09:43;3.30;;;2.27;;
15889;SDS011;8043;49.388;12.128;2023-05-10T02:14:48;2.90;;;1.90;;
15889;SDS011;8043;49.388;12.128;2023-05-10T02:19:52;4.50;;;2.10;;
15889;SDS011;8043;49.388;12.128;2023-05-10T02:24:55;9.27;;;2.27;;
15889;SDS011;8043;49.388;12.128;2023-05-10T02:29:59;3.53;;;2.10;;
15889;SDS011;8043;49.388;12.128;2023-05-10T02:35:02;3.80;;;2.27;;
15889;SDS011;8043;49.388;12.128;2023-05-10T02:40:05;5.13;;;2.70;;
15889;SDS011;8043;49.388;12.128;2023-05-10T02:45:11;5.30;;;2.50;;
15889;SDS011;8043;49.388;12.128;2023-05-10T02:50:14;4.33;;;2.57;;
15889;SDS011;8043;49.388;12.128;2023-05-10T02:55:17;5.90;;;2.50;;
15889;SDS011;8043;49.388;12.128;2023-05-10T03:00:21;3.57;;;2.30;;
15889;SDS011;8043;49.388;12.128;2023-05-10T03:05:24;6.57;;;2.73;;
15889;SDS011;8043;49.388;12.128;2023-05-10T03:10:27;5.17;;;2.60;;
15889;SDS011;8043;49.388;12.128;2023-05-10T03:15:33;5.47;;;2.53;;
15889;SDS011;8043;49.388;12.128;2023-05-10T03:20:37;4.43;;;2.50;;
15889;SDS011;8043;49.388;12.128;2023-05-10T03:25:48;4.03;;;2.50;;
15889;SDS011;8043;49.388;12.128;2023-05-10T03:30:51;3.67;;;2.50;;
15889;SDS011;8043;49.388;12.128;2023-05-10T03:35:55;4.37;;;2.83;;
15889;SDS011;8043;49.388;12.128;2023-05-10T03:40:57;5.93;;;2.80;;
15889;SDS011;8043;49.388;12.128;2023-05-10T03:46:03;6.80;;;3.07;;
15889;SDS011;8043;49.388;12.128;2023-05-10T03:51:06;5.03;;;2.80;;
15889;SDS011;8043;49.388;12.128;2023-05-10T03:56:08;5.17;;;2.70;;
15889;SDS011;8043;49.388;12.128;2023-05-10T04:01:10;6.07;;;3.37;;
15889;SDS011;8043;49.388;12.128;2023-05-10T04:06:12;6.23;;;3.00;;
15889;SDS011;8043;49.388;12.128;2023-05-10T04:11:15;5.40;;;3.07;;
15889;SDS011;8043;49.388;12.128;2023-05-10T04:16:17;6.63;;;2.80;;
15889;SDS011;8043;49.388;12.128;2023-05-10T04:21:19;5.83;;;3.10;;
15889;SDS011;8043;49.388;12.128;2023-05-10T04:26:21;9.60;;;3.13;;
15889;SDS011;8043;49.388;12.128;2023-05-10T04:31:25;5.40;;;2.93;;
15889;SDS011;8043;49.388;12.128;2023-05-10T04:36:28;9.97;;;3.47;;
15889;SDS011;8043;49.388;12.128;2023-05-10T04:41:30;7.77;;;3.73;;
15889;SDS011;8043;49.388;12.128;2023-05-10T04:46:32;5.43;;;3.33;;
15889;SDS011;8043;49.388;12.128;2023-05-10T04:51:35;8.10;;;3.10;;
15889;SDS011;8043;49.388;12.128;2023-05-10T04:56:38;6.57;;;3.00;;
15889;SDS011;8043;49.388;12.128;2023-05-10T05:01:41;6.40;;;3.47;;
15889;SDS011;8043;49.388;12.128;2023-05-10T05:06:43;6.47;;;3.57;;
15889;SDS011;8043;49.388;12.128;2023-05-10T05:11:45;7.23;;;4.30;;
15889;SDS011;8043;49.388;12.128;2023-05-10T05:16:48;7.00;;;4.07;;
15889;SDS011;8043;49.388;12.128;2023-05-10T05:21:50;7.80;;;3.77;;
15889;SDS011;8043;49.388;12.128;2023-05-10T05:26:52;5.08;;;3.55;;
15889;SDS011;8043;49.388;12.128;2023-05-10T05:31:54;7.57;;;3.57;;
15889;SDS011;8043;49.388;12.128;2023-05-10T05:36:56;7.27;;;3.43;;
15889;SDS011;8043;49.388;12.128;2023-05-10T05:41:58;6.77;;;3.47;;
15889;SDS011;8043;49.388;12.128;2023-05-10T05:47:01;6.73;;;3.87;;
15889;SDS011;8043;49.388;12.128;2023-05-10T05:52:03;11.13;;;3.93;;
15889;SDS011;8043;49.388;12.128;2023-05-10T05:57:05;9.23;;;4.03;;
15889;SDS011;8043;49.388;12.128;2023-05-10T06:02:08;7.87;;;4.20;;
15889;SDS011;8043;49.388;12.128;2023-05-10T06:07:11;9.20;;;4.05;;
15889;SDS011;8043;49.388;12.128;2023-05-10T06:12:13;8.07;;;3.93;;
15889;SDS011;8043;49.388;12.128;2023-05-10T06:17:15;8.13;;;4.00;;
15889;SDS011;8043;49.388;12.128;2023-05-10T06:22:18;8.20;;;4.20;;
15889;SDS011;8043;49.388;12.128;2023-05-10T06:27:22;9.30;;;4.23;;
15889;SDS011;8043;49.388;12.128;2023-05-10T06:32:24;6.80;;;4.03;;
15889;SDS011;8043;49.388;12.128;2023-05-10T06:37:27;8.87;;;4.03;;
15889;SDS011;8043;49.388;12.128;2023-05-10T06:42:29;8.57;;;4.53;;
15889;SDS011;8043;49.388;12.128;2023-05-10T06:47:31;7.87;;;4.90;;
15889;SDS011;8043;49.388;12.128;2023-05-10T06:52:33;9.20;;;4.43;;
15889;SDS011;8043;49.388;12.128;2023-05-10T06:57:36;11.17;;;4.57;;
15889;SDS011;8043;49.388;12.128;2023-05-10T07:02:38;6.20;;;3.80;;
15889;SDS011;8043;49.388;12.128;2023-05-10T07:07:40;7.87;;;4.40;;
15889;SDS011;8043;49.388;12.128;2023-05-10T07:12:43;7.60;;;4.20;;
15889;SDS011;8043;49.388;12.128;2023-05-10T07:17:45;10.10;;;4.17;;
15889;SDS011;8043;49.388;12.128;2023-05-10T07:22:47;7.30;;;4.13;;
15889;SDS011;8043;49.388;12.128;2023-05-10T07:27:49;7.50;;;3.97;;
15889;SDS011;8043;49.388;12.128;2023-05-10T07:32:52;9.17;;;4.37;;
15889;SDS011;8043;49.388;12.128;2023-05-10T07:37:54;10.37;;;5.03;;
15889;SDS011;8043;49.388;12.128;2023-05-10T07:42:56;8.23;;;4.80;;
15889;SDS011;8043;49.388;12.128;2023-05-10T07:48:00;7.53;;;4.87;;
15889;SDS011;8043;49.388;12.128;2023-05-10T07:53:02;7.77;;;4.53;;
15889;SDS011;8043;49.388;12.128;2023-05-10T07:58:04;9.40;;;5.10;;
15889;SDS011;8043;49.388;12.128;2023-05-10T08:03:06;9.00;;;5.17;;
15889;SDS011;8043;49.388;12.128;2023-05-10T08:08:09;9.90;;;4.93;;
15889;SDS011;8043;49.388;12.128;2023-05-10T08:13:11;9.30;;;4.80;;
15889;SDS011;8043;49.388;12.128;2023-05-10T08:18:13;10.07;;;5.17;;
15889;SDS011;8043;49.388;12.128;2023-05-10T08:23:15;7.87;;;4.53;;
15889;SDS011;8043;49.388;12.128;2023-05-10T08:28:17;9.37;;;5.10;;
15889;SDS011;8043;49.388;12.128;2023-05-10T08:33:19;9.33;;;5.07;;
15889;SDS011;8043;49.388;12.128;2023-05-10T08:38:22;9.37;;;4.90;;
15889;SDS011;8043;49.388;12.128;2023-05-10T08:43:28;10.90;;;4.20;;
15889;SDS011;8043;49.388;12.128;2023-05-10T08:48:31;6.63;;;4.07;;
15889;SDS011;8043;49.388;12.128;2023-05-10T08:53:36;7.20;;;4.40;;
15889;SDS011;8043;49.388;12.128;2023-05-10T08:58:38;7.30;;;3.80;;
15889;SDS011;8043;49.388;12.128;2023-05-10T09:03:40;6.40;;;3.80;;
15889;SDS011;8043;49.388;12.128;2023-05-10T09:08:42;7.07;;;3.73;;
15889;SDS011;8043;49.388;12.128;2023-05-10T09:13:45;6.27;;;3.80;;
15889;SDS011;8043;49.388;12.128;2023-05-10T09:18:48;8.87;;;3.90;;
15889;SDS011;8043;49.388;12.128;2023-05-10T09:23:51;5.80;;;3.23;;
15889;SDS011;8043;49.388;12.128;2023-05-10T09:28:59;7.17;;;3.40;;
15889;SDS011;8043;49.388;12.128;2023-05-10T09:34:00;5.20;;;3.47;;
15889;SDS011;8043;49.388;12.128;2023-05-10T09:39:09;4.90;;;3.23;;
15889;SDS011;8043;49.388;12.128;2023-05-10T09:44:16;5.63;;;3.00;;
15889;SDS011;8043;49.388;12.128;2023-05-10T09:49:20;3.90;;;2.57;;
15889;SDS011;8043;49.388;12.128;2023-05-10T09:54:23;3.57;;;2.43;;
15889;SDS011;8043;49.388;12.128;2023-05-10T09:59:25;5.50;;;2.80;;
15889;SDS011;8043;49.388;12.128;2023-05-10T10:04:28;4.90;;;2.70;;
15889;SDS011;8043;49.388;12.128;2023-05-10T10:09:32;4.33;;;2.33;;
15889;SDS011;8043;49.388;12.128;2023-05-10T10:14:35;4.80;;;2.57;;
15889;SDS011;8043;49.388;12.128;2023-05-10T10:19:38;3.40;;;2.30;;
15889;SDS011;8043;49.388;12.128;2023-05-10T10:24:41;2.73;;;1.90;;
15889;SDS011;8043;49.388;12.128;2023-05-10T10:29:58;2.90;;;2.00;;
15889;SDS011;8043;49.388;12.128;2023-05-10T10:35:00;3.13;;;2.13;;
15889;SDS011;8043;49.388;12.128;2023-05-10T10:40:22;4.67;;;2.70;;
15889;SDS011;8043;49.388;12.128;2023-05-10T10:45:14;5.73;;;2.73;;
15889;SDS011;8043;49.388;12.128;2023-05-10T10:50:16;2.90;;;1.93;;
15889;SDS011;8043;49.388;12.128;2023-05-10T10:55:19;2.10;;;1.80;;
15889;SDS011;8043;49.388;12.128;2023-05-10T11:00:30;4.03;;;2.03;;
15889;SDS011;8043;49.388;12.128;2023-05-10T11:05:47;3.30;;;2.30;;
15889;SDS011;8043;49.388;12.128;2023-05-10T11:10:52;3.87;;;1.97;;
15889;SDS011;8043;49.388;12.128;2023-05-10T11:16:10;3.30;;;1.60;;
15889;SDS011;8043;49.388;12.128;2023-05-10T11:21:16;2.20;;;1.80;;
15889;SDS011;8043;49.388;12.128;2023-05-10T11:26:18;2.50;;;1.77;;
15889;SDS011;8043;49.388;12.128;2023-05-10T11:31:22;3.17;;;1.50;;
15889;SDS011;8043;49.388;12.128;2023-05-10T11:36:27;1.57;;;1.47;;
15889;SDS011;8043;49.388;12.128;2023-05-10T11:41:31;3.93;;;1.70;;
15889;SDS011;8043;49.388;12.128;2023-05-10T11:46:34;2.60;;;1.50;;
15889;SDS011;8043;49.388;12.128;2023-05-10T11:51:36;1.73;;;1.60;;
15889;SDS011;8043;49.388;12.128;2023-05-10T11:56:40;2.07;;;1.40;;
15889;SDS011;8043;49.388;12.128;2023-05-10T12:01:42;3.40;;;1.30;;
15889;SDS011;8043;49.388;12.128;2023-05-10T12:06:44;1.60;;;1.13;;
15889;SDS011;8043;49.388;12.128;2023-05-10T12:11:47;2.03;;;1.07;;
15889;SDS011;8043;49.388;12.128;2023-05-10T12:16:49;1.87;;;1.33;;
15889;SDS011;8043;49.388;12.128;2023-05-10T12:21:52;1.20;;;1.10;;
15889;SDS011;8043;49.388;12.128;2023-05-10T12:26:54;1.27;;;0.60;;
15889;SDS011;8043;49.388;12.128;2023-05-10T12:31:57;0.80;;;0.60;;
15889;SDS011;8043;49.388;12.128;2023-05-10T12:37:00;1.60;;;1.20;;
15889;SDS011;8043;49.388;12.128;2023-05-10T12:42:03;4.00;;;1.20;;
15889;SDS011;8043;49.388;12.128;2023-05-10T12:47:05;1.33;;;1.23;;
15889;SDS011;8043;49.388;12.128;2023-05-10T12:52:07;1.23;;;1.13;;
15889;SDS011;8043;49.388;12.128;2023-05-10T12:57:10;2.50;;;0.97;;
15889;SDS011;8043;49.388;12.128;2023-05-10T13:02:12;1.20;;;0.73;;
15889;SDS011;8043;49.388;12.128;2023-05-10T13:07:15;1.10;;;0.90;;
15889;SDS011;8043;49.388;12.128;2023-05-10T13:12:17;1.10;;;1.00;;
15889;SDS011;8043;49.388;12.128;2023-05-10T13:17:19;1.73;;;1.10;;
15889;SDS011;8043;49.388;12.128;2023-05-10T13:22:21;1.30;;;1.20;;
15889;SDS011;8043;49.388;12.128;2023-05-10T13:27:24;1.80;;;1.00;;
15889;SDS011;8043;49.388;12.128;2023-05-10T13:32:26;1.83;;;1.30;;
15889;SDS011;8043;49.388;12.128;2023-05-10T13:37:28;1.73;;;1.20;;
15889;SDS011;8043;49.388;12.128;2023-05-10T13:42:31;1.63;;;1.20;;
15889;SDS011;8043;49.388;12.128;2023-05-10T13:47:34;1.63;;;1.43;;
15889;SDS011;8043;49.388;12.128;2023-05-10T13:52:36;2.23;;;1.53;;
15889;SDS011;8043;49.388;12.128;2023-05-10T13:57:38;2.20;;;1.30;;
15889;SDS011;8043;49.388;12.128;2023-05-10T14:02:41;2.03;;;1.40;;
15889;SDS011;8043;49.388;12.128;2023-05-10T14:07:43;2.73;;;1.57;;
15889;SDS011;8043;49.388;12.128;2023-05-10T14:12:46;1.83;;;1.43;;
15889;SDS011;8043;49.388;12.128;2023-05-10T14:17:48;3.47;;;1.50;;
15889;SDS011;8043;49.388;12.128;2023-05-10T14:22:50;2.77;;;1.30;;
15889;SDS011;8043;49.388;12.128;2023-05-10T14:27:52;2.10;;;0.93;;
15889;SDS011;8043;49.388;12.128;2023-05-10T14:32:55;2.50;;;1.37;;
15889;SDS011;8043;49.388;12.128;2023-05-10T14:37:58;2.97;;;1.83;;
15889;SDS011;8043;49.388;12.128;2023-05-10T14:43:01;1.70;;;1.23;;
15889;SDS011;8043;49.388;12.128;2023-05-10T14:48:04;1.77;;;1.43;;
15889;SDS011;8043;49.388;12.128;2023-05-10T14:53:06;2.30;;;1.60;;
15889;SDS011;8043;49.388;12.128;2023-05-10T14:58:08;1.83;;;1.30;;
15889;SDS011;8043;49.388;12.128;2023-05-10T15:03:10;1.90;;;0.93;;
15889;SDS011;8043;49.388;12.128;2023-05-10T15:08:13;2.80;;;1.27;;
15889;SDS011;8043;49.388;12.128;2023-05-10T15:13:15;0.90;;;0.90;;
15889;SDS011;8043;49.388;12.128;2023-05-10T15:18:19;0.93;;;0.80;;
15889;SDS011;8043;49.388;12.128;2023-05-10T15:23:21;3.53;;;1.50;;
15889;SDS011;8043;49.388;12.128;2023-05-10T15:28:23;1.33;;;0.73;;
15889;SDS011;8043;49.388;12.128;2023-05-10T15:33:25;0.60;;;0.60;;
15889;SDS011;8043;49.388;12.128;2023-05-10T15:38:28;1.23;;;0.90;;
15889;SDS011;8043;49.388;12.128;2023-05-10T15:43:30;0.80;;;0.80;;
15889;SDS011;8043;49.388;12.128;2023-05-10T15:48:32;4.83;;;0.97;;
15889;SDS011;8043;49.388;12.128;2023-05-10T15:53:34;0.50;;;0.50;;
15889;SDS011;8043;49.388;12.128;2023-05-10T15:58:41;0.80;;;0.67;;
15889;SDS011;8043;49.388;12.128;2023-05-10T16:03:40;0.90;;;0.47;;
15889;SDS011;8043;49.388;12.128;2023-05-10T16:08:43;0.67;;;0.57;;
15889;SDS011;8043;49.388;12.128;2023-05-10T16:13:45;1.10;;;1.00;;
15889;SDS011;8043;49.388;12.128;2023-05-10T16:18:47;0.80;;;0.77;;
15889;SDS011;8043;49.388;12.128;2023-05-10T16:23:49;1.53;;;1.13;;
15889;SDS011;8043;49.388;12.128;2023-05-10T16:28:52;2.73;;;1.47;;
15889;SDS011;8043;49.388;12.128;2023-05-10T16:33:54;1.53;;;0.90;;
15889;SDS011;8043;49.388;12.128;2023-05-10T16:38:56;1.40;;;1.30;;
15889;SDS011;8043;49.388;12.128;2023-05-10T16:43:59;1.13;;;1.03;;
15889;SDS011;8043;49.388;12.128;2023-05-10T16:49:01;0.87;;;0.80;;
15889;SDS011;8043;49.388;12.128;2023-05-10T16:54:04;0.60;;;0.57;;
15889;SDS011;8043;49.388;12.128;2023-05-10T16:59:06;1.00;;;0.57;;
15889;SDS011;8043;49.388;12.128;2023-05-10T17:04:08;1.27;;;0.97;;
15889;SDS011;8043;49.388;12.128;2023-05-10T17:09:10;1.07;;;0.97;;
15889;SDS011;8043;49.388;12.128;2023-05-10T17:14:13;2.83;;;1.60;;
15889;SDS011;8043;49.388;12.128;2023-05-10T17:19:15;2.60;;;2.40;;
15889;SDS011;8043;49.388;12.128;2023-05-10T17:24:17;3.90;;;2.47;;
15889;SDS011;8043;49.388;12.128;2023-05-10T17:29:20;9.53;;;3.90;;
15889;SDS011;8043;49.388;12.128;2023-05-10T17:34:22;7.60;;;4.33;;
15889;SDS011;8043;49.388;12.128;2023-05-10T17:39:25;4.73;;;2.63;;
15889;SDS011;8043;49.388;12.128;2023-05-10T17:44:27;5.57;;;2.60;;
15889;SDS011;8043;49.388;12.128;2023-05-10T17:49:29;2.90;;;2.13;;
15889;SDS011;8043;49.388;12.128;2023-05-10T17:54:32;3.03;;;1.67;;
15889;SDS011;8043;49.388;12.128;2023-05-10T17:59:34;2.73;;;1.50;;
15889;SDS011;8043;49.388;12.128;2023-05-10T18:04:40;2.83;;;1.87;;
15889;SDS011;8043;49.388;12.128;2023-05-10T18:09:42;2.17;;;1.40;;
15889;SDS011;8043;49.388;12.128;2023-05-10T18:14:45;2.03;;;1.67;;
15889;SDS011;8043;49.388;12.128;2023-05-10T18:19:47;2.30;;;1.40;;
15889;SDS011;8043;49.388;12.128;2023-05-10T18:24:49;2.63;;;2.00;;
15889;SDS011;8043;49.388;12.128;2023-05-10T18:29:52;2.77;;;1.77;;
15889;SDS011;8043;49.388;12.128;2023-05-10T18:34:54;1.80;;;1.20;;
15889;SDS011;8043;49.388;12.128;2023-05-10T18:39:58;1.77;;;1.20;;
15889;SDS011;8043;49.388;12.128;2023-05-10T18:45:00;1.20;;;1.10;;
15889;SDS011;8043;49.388;12.128;2023-05-10T18:50:03;1.30;;;1.20;;
15889;SDS011;8043;49.388;12.128;2023-05-10T18:55:07;2.47;;;1.27;;
15889;SDS011;8043;49.388;12.128;2023-05-10T19:00:10;3.43;;;1.27;;
15889;SDS011;8043;49.388;12.128;2023-05-10T19:05:14;1.83;;;1.00;;
15889;SDS011;8043;49.388;12.128;2023-05-10T19:10:16;1.60;;;1.40;;
15889;SDS011;8043;49.388;12.128;2023-05-10T19:15:19;4.83;;;1.73;;
15889;SDS011;8043;49.388;12.128;2023-05-10T19:20:22;2.93;;;1.43;;
15889;SDS011;8043;49.388;12.128;2023-05-10T19:25:24;23.90;;;12.53;;
15889;SDS011;8043;49.388;12.128;2023-05-10T19:30:29;4.90;;;3.33;;
15889;SDS011;8043;49.388;12.128;2023-05-10T19:35:31;2.07;;;1.60;;
15889;SDS011;8043;49.388;12.128;2023-05-10T19:40:34;4.00;;;1.80;;
15889;SDS011;8043;49.388;12.128;2023-05-10T19:45:36;3.23;;;1.93;;
15889;SDS011;8043;49.388;12.128;2023-05-10T19:50:39;4.07;;;1.87;;
15889;SDS011;8043;49.388;12.128;2023-05-10T19:55:44;4.93;;;2.33;;
15889;SDS011;8043;49.388;12.128;2023-05-10T20:00:45;2.27;;;1.50;;
15889;SDS011;8043;49.388;12.128;2023-05-10T20:05:48;2.97;;;1.70;;
15889;SDS011;8043;49.388;12.128;2023-05-10T20:10:50;3.13;;;1.97;;
15889;SDS011;8043;49.388;12.128;2023-05-10T20:15:56;3.30;;;2.00;;
15889;SDS011;8043;49.388;12.128;2023-05-10T20:20:59;4.57;;;2.27;;
15889;SDS011;8043;49.388;12.128;2023-05-10T20:26:02;3.67;;;2.20;;
15889;SDS011;8043;49.388;12.128;2023-05-10T20:31:05;2.93;;;1.67;;
15889;SDS011;8043;49.388;12.128;2023-05-10T20:36:09;2.90;;;1.80;;
15889;SDS011;8043;49.388;12.128;2023-05-10T20:41:11;2.10;;;1.67;;
15889;SDS011;8043;49.388;12.128;2023-05-10T20:46:13;3.27;;;2.10;;
15889;SDS011;8043;49.388;12.128;2023-05-10T20:51:16;4.77;;;2.13;;
15889;SDS011;8043;49.388;12.128;2023-05-10T20:56:18;3.23;;;1.77;;
15889;SDS011;8043;49.388;12.128;2023-05-10T21:01:21;3.37;;;2.10;;
15889;SDS011;8043;49.388;12.128;2023-05-10T21:06:23;4.57;;;2.43;;
15889;SDS011;8043;49.388;12.128;2023-05-10T21:11:26;2.23;;;1.80;;
15889;SDS011;8043;49.388;12.128;2023-05-10T21:16:28;3.53;;;1.93;;
15889;SDS011;8043;49.388;12.128;2023-05-10T21:21:31;2.53;;;1.83;;
15889;SDS011;8043;49.388;12.128;2023-05-10T21:26:33;4.03;;;2.00;;
15889;SDS011;8043;49.388;12.128;2023-05-10T21:31:35;11.27;;;2.03;;
15889;SDS011;8043;49.388;12.128;2023-05-10T21:36:38;2.90;;;1.97;;
15889;SDS011;8043;49.388;12.128;2023-05-10T21:41:40;4.40;;;1.90;;
15889;SDS011;8043;49.388;12.128;2023-05-10T21:46:42;4.30;;;2.47;;
15889;SDS011;8043;49.388;12.128;2023-05-10T21:51:45;3.70;;;2.20;;
15889;SDS011;8043;49.388;12.128;2023-05-10T21:56:48;6.63;;;2.40;;
15889;SDS011;8043;49.388;12.128;2023-05-10T22:01:50;10.63;;;2.67;;
15889;SDS011;8043;49.388;12.128;2023-05-10T22:06:52;3.80;;;2.40;;
15889;SDS011;8043;49.388;12.128;2023-05-10T22:11:54;5.20;;;2.00;;
15889;SDS011;8043;49.388;12.128;2023-05-10T22:16:57;3.40;;;2.13;;
15889;SDS011;8043;49.388;12.128;2023-05-10T22:22:00;4.27;;;3.00;;
15889;SDS011;8043;49.388;12.128;2023-05-10T22:27:02;5.73;;;3.63;;
15889;SDS011;8043;49.388;12.128;2023-05-10T22:32:07;4.90;;;2.67;;
15889;SDS011;8043;49.388;12.128;2023-05-10T22:37:10;5.90;;;2.70;;
15889;SDS011;8043;49.388;12.128;2023-05-10T22:42:14;4.73;;;2.87;;
15889;SDS011;8043;49.388;12.128;2023-05-10T22:47:16;5.17;;;2.97;;
15889;SDS011;8043;49.388;12.128;2023-05-10T22:52:19;4.73;;;2.93;;
15889;SDS011;8043;49.388;12.128;2023-05-10T22:57:21;5.27;;;3.07;;
15889;SDS011;8043;49.388;12.128;2023-05-10T23:02:25;8.57;;;3.27;;
15889;SDS011;8043;49.388;12.128;2023-05-10T23:07:28;5.33;;;2.90;;
15889;SDS011;8043;49.388;12.128;2023-05-10T23:12:30;4.53;;;3.13;;
15889;SDS011;8043;49.388;12.128;2023-05-10T23:17:33;6.43;;;3.73;;
15889;SDS011;8043;49.388;12.128;2023-05-10T23:22:35;6.73;;;3.80;;
15889;SDS011;8043;49.388;12.128;2023-05-10T23:27:37;7.65;;;3.35;;
15889;SDS011;8043;49.388;12.128;2023-05-10T23:32:40;6.17;;;3.30;;
15889;SDS011;8043;49.388;12.128;2023-05-10T23:37:42;5.47;;;2.80;;
15889;SDS011;8043;49.388;12.128;2023-05-10T23:42:44;4.30;;;3.10;;
15889;SDS011;8043;49.388;12.128;2023-05-10T23:47:46;6.73;;;3.40;;
15889;SDS011;8043;49.388;12.128;2023-05-10T23:52:48;3.93;;;2.73;;
15889;SDS011;8043;49.388;12.128;2023-05-10T23:57:50;7.40;;;2.80;;
